createdAt,value
2023-11-19T00:00:59.403Z,100812.84
2023-11-19T00:01:59.556Z,100810.61
2023-11-19T00:03:00.077Z,100815.39
2023-11-19T00:04:00.460Z,100809.36
2023-11-19T00:05:01.261Z,100807.53
2023-11-19T00:06:01.122Z,100809.69
2023-11-19T00:07:01.665Z,100807.86
2023-11-19T00:08:02.045Z,100809.81
2023-11-19T00:09:02.524Z,100807.05
2023-11-19T00:10:03.038Z,100813.24
2023-11-19T00:11:03.246Z,100812.14
2023-11-19T00:12:07.047Z,100812.69
2023-11-19T00:13:04.926Z,100813.47
2023-11-19T00:14:05.422Z,100814.41
2023-11-19T00:15:05.849Z,100815.5
2023-11-19T00:16:06.817Z,100813.83
2023-11-19T00:17:05.863Z,100812.28
2023-11-19T00:18:06.325Z,100812.81
2023-11-19T00:19:06.666Z,100809.22
2023-11-19T00:20:08.952Z,100806.79
2023-11-19T00:21:08.020Z,100809.03
2023-11-19T00:22:08.589Z,100807.86
2023-11-19T00:23:08.988Z,100805.28
2023-11-19T00:24:09.886Z,100805.89
2023-11-19T00:25:10.343Z,100803.7
2023-11-19T00:26:10.036Z,100806.88
2023-11-19T00:27:10.225Z,100807.93
2023-11-19T00:28:10.982Z,100804.3
2023-11-19T00:29:11.267Z,100798.8
2023-11-19T00:30:12.184Z,100801.59
2023-11-19T00:31:12.119Z,100795.44
2023-11-19T00:32:12.428Z,100797.14
2023-11-19T00:33:12.838Z,100797.38
2023-11-19T00:34:13.150Z,100796.69
2023-11-19T00:35:13.451Z,100797.36
2023-11-19T00:36:13.809Z,100797.93
2023-11-19T00:37:14.837Z,100795.16
2023-11-19T00:38:14.803Z,100792.86
2023-11-19T00:39:15.110Z,100790.44
2023-11-19T00:40:15.978Z,100789.94
2023-11-19T00:41:16.596Z,100787.56
2023-11-19T00:42:16.132Z,100788.22
2023-11-19T00:43:16.721Z,100786.16
2023-11-19T00:44:16.886Z,100786.23
2023-11-19T00:45:17.418Z,100784.16
2023-11-19T00:46:17.845Z,100782.32
2023-11-19T00:47:18.367Z,100784.47
2023-11-19T00:48:18.661Z,100786.34
2023-11-19T00:49:18.909Z,100783.87
2023-11-19T00:50:19.607Z,100782.48
2023-11-19T00:51:19.698Z,100781.33
2023-11-19T00:52:20.350Z,100778.1
2023-11-19T00:53:20.735Z,100773.91
2023-11-19T00:54:21.250Z,100771.34
2023-11-19T00:55:21.270Z,100767.83
2023-11-19T00:56:21.584Z,100765.02
2023-11-19T00:57:22.814Z,100767.08
2023-11-19T00:58:23.192Z,100765.97
2023-11-19T00:59:23.447Z,100763.16
2023-11-19T01:00:23.981Z,100766.59
2023-11-19T01:01:25.195Z,100762.61
2023-11-19T01:02:24.700Z,100765.05
2023-11-19T01:03:25.167Z,100767.32
2023-11-19T01:04:25.617Z,100764.16
2023-11-19T01:05:26.402Z,100765.98
2023-11-19T01:06:32.599Z,100763.62
2023-11-19T01:07:29.863Z,100762.84
2023-11-19T01:08:30.293Z,100761.42
2023-11-19T01:09:31.089Z,100759.03
2023-11-19T01:10:31.103Z,100758.58
2023-11-19T01:11:31.407Z,100760.28
2023-11-19T01:12:32.014Z,100760.85
2023-11-19T01:13:32.426Z,100761.39
2023-11-19T01:14:32.403Z,100760.33
2023-11-19T01:15:33.606Z,100757.68
2023-11-19T01:16:33.264Z,100757.47
2023-11-19T01:17:33.636Z,100749.17
2023-11-19T01:18:34.118Z,100751.55
2023-11-19T01:19:34.657Z,100748.84
2023-11-19T01:20:34.838Z,100749.88
2023-11-19T01:21:35.326Z,100742.83
2023-11-19T01:22:35.618Z,100752.44
2023-11-19T01:23:36.829Z,100747.93
2023-11-19T01:24:36.511Z,100745.17
2023-11-19T01:25:36.689Z,100749.59
2023-11-19T01:26:37.382Z,100743.92
2023-11-19T01:27:37.563Z,100747.55
2023-11-19T01:28:38.276Z,100744
2023-11-19T01:29:38.354Z,100743.18
2023-11-19T01:30:38.602Z,100746.45
2023-11-19T01:31:39.019Z,100744.98
2023-11-19T01:32:40.191Z,100740.98
2023-11-19T01:33:40.292Z,100736.3
2023-11-19T01:34:40.304Z,100736.7
2023-11-19T01:35:40.693Z,100736.23
2023-11-19T01:36:40.996Z,100735.03
2023-11-19T01:37:41.241Z,100733.03
2023-11-19T01:38:41.843Z,100733.19
2023-11-19T01:39:45.218Z,100731.23
2023-11-19T01:40:42.649Z,100738.57
2023-11-19T01:41:42.868Z,100734.7
2023-11-19T01:42:43.294Z,100734.86
2023-11-19T01:43:43.693Z,100731.92
2023-11-19T01:45:48.226Z,100732.75
2023-11-19T01:46:49.172Z,100732.66
2023-11-19T01:47:48.665Z,100731.48
2023-11-19T01:48:49.061Z,100730.91
2023-11-19T01:49:49.494Z,100728.59
2023-11-19T01:51:54.625Z,100731.52
2023-11-19T01:52:55.648Z,100733.52
2023-11-19T01:53:56.253Z,100733.99
2023-11-19T01:54:56.185Z,100730.06
2023-11-19T01:55:56.327Z,100731.73
2023-11-19T01:56:57.933Z,100734.34
2023-11-19T01:57:59.363Z,100729.7
2023-11-19T01:58:57.921Z,100729.7
2023-11-19T01:59:57.313Z,100728.44
2023-11-19T02:00:58.812Z,100726.48
2023-11-19T02:02:01.731Z,100724.89
2023-11-19T02:02:59.700Z,100726.48
2023-11-19T02:04:00.268Z,100720.16
2023-11-19T02:05:00.499Z,100718.03
2023-11-19T02:06:01.458Z,100719.06
2023-11-19T02:07:01.304Z,100716.62
2023-11-19T02:08:01.364Z,100715.08
2023-11-19T02:09:01.821Z,100715.77
2023-11-19T02:10:02.165Z,100710.03
2023-11-19T02:11:02.530Z,100710.89
2023-11-19T02:12:02.940Z,100711.45
2023-11-19T02:14:04.085Z,100708.63
2023-11-19T02:15:07.763Z,100710.95
2023-11-19T02:16:05.787Z,100709.78
2023-11-19T02:17:06.362Z,100710.42
2023-11-19T02:19:10.979Z,100710.55
2023-11-19T02:20:11.707Z,100710.78
2023-11-19T02:21:11.507Z,100711.56
2023-11-19T02:22:12.026Z,100712.8
2023-11-19T02:23:14.579Z,100708.73
2023-11-19T02:24:15.297Z,100707.41
2023-11-19T02:25:21.014Z,100704.51
2023-11-19T02:28:18.617Z,100702.25
2023-11-19T02:29:18.823Z,100700.33
2023-11-19T02:30:18.916Z,100702.19
2023-11-19T02:31:19.346Z,100705.48
2023-11-19T02:32:20.386Z,100705.12
2023-11-19T02:33:20.275Z,100707.78
2023-11-19T02:34:20.303Z,100705.31
2023-11-19T02:35:20.694Z,100706.17
2023-11-19T02:36:21.020Z,100704.56
2023-11-19T02:37:21.181Z,100703.66
2023-11-19T02:38:21.739Z,100701.98
2023-11-19T02:39:22.049Z,100697.98
2023-11-19T02:40:22.191Z,100701.75
2023-11-19T02:41:22.591Z,100703.11
2023-11-19T02:42:22.896Z,100698.99
2023-11-19T02:43:23.320Z,100702.38
2023-11-19T02:44:23.929Z,100702.21
2023-11-19T02:45:24.660Z,100698.05
2023-11-19T02:46:24.401Z,100693.84
2023-11-19T02:47:24.913Z,100698.19
2023-11-19T02:48:25.085Z,100694.16
2023-11-19T02:49:25.508Z,100692.33
2023-11-19T02:50:26.840Z,100696.42
2023-11-19T02:51:26.207Z,100697.09
2023-11-19T02:52:26.645Z,100694.51
2023-11-19T02:53:26.795Z,100694.88
2023-11-19T02:54:27.279Z,100694.87
2023-11-19T02:55:27.707Z,100691.8
2023-11-19T02:56:28.016Z,100688.98
2023-11-19T02:57:32.423Z,100691.03
2023-11-19T02:58:29.890Z,100682.88
2023-11-19T02:59:30.281Z,100682.83
2023-11-19T03:00:30.598Z,100681.39
2023-11-19T03:01:31.967Z,100679.98
2023-11-19T03:02:31.354Z,100676.59
2023-11-19T03:03:31.581Z,100678.39
2023-11-19T03:04:31.875Z,100682.69
2023-11-19T03:05:32.374Z,100673.86
2023-11-19T03:06:32.783Z,100673.98
2023-11-19T03:07:32.682Z,100677.66
2023-11-19T03:08:33.972Z,100671.39
2023-11-19T03:09:33.523Z,100676.91
2023-11-19T03:10:34.098Z,100679.78
2023-11-19T03:11:34.343Z,100677.14
2023-11-19T03:12:34.452Z,100672.53
2023-11-19T03:13:34.979Z,100675.87
2023-11-19T03:14:35.922Z,100679.31
2023-11-19T03:15:35.817Z,100679.02
2023-11-19T03:16:36.111Z,100676.32
2023-11-19T03:17:45.728Z,100680.67
2023-11-19T03:18:38.183Z,100675.96
2023-11-19T03:19:38.563Z,100674.73
2023-11-19T03:20:38.939Z,100673.3
2023-11-19T03:21:39.185Z,100672.15
2023-11-19T03:22:39.452Z,100670.23
2023-11-19T03:23:39.792Z,100670.88
2023-11-19T03:24:40.277Z,100669.48
2023-11-19T03:25:40.784Z,100670.38
2023-11-19T03:26:41.061Z,100670.23
2023-11-19T03:27:41.516Z,100666.12
2023-11-19T03:28:41.652Z,100663.05
2023-11-19T03:29:42.041Z,100660.81
2023-11-19T03:30:42.266Z,100658.56
2023-11-19T03:31:45.695Z,100654.27
2023-11-19T03:32:43.211Z,100656.98
2023-11-19T03:33:43.628Z,100656.97
2023-11-19T03:34:43.905Z,100658.29
2023-11-19T03:35:44.336Z,100662.5
2023-11-19T03:36:44.443Z,100661.14
2023-11-19T03:37:44.866Z,100663.15
2023-11-19T03:38:45.076Z,100657.09
2023-11-19T03:39:45.530Z,100657.75
2023-11-19T03:40:45.795Z,100657.45
2023-11-19T03:41:48.885Z,100659.57
2023-11-19T03:42:48.984Z,100657
2023-11-19T03:43:46.690Z,100658.29
2023-11-19T03:44:47.134Z,100650.76
2023-11-19T03:45:47.830Z,100652.71
2023-11-19T03:46:48.426Z,100649.82
2023-11-19T03:47:48.015Z,100643.59
2023-11-19T03:48:49.249Z,100641.59
2023-11-19T03:49:52.520Z,100643.88
2023-11-19T03:50:49.975Z,100643.59
2023-11-19T03:51:50.129Z,100643.31
2023-11-19T03:52:50.881Z,100639.2
2023-11-19T03:53:50.867Z,100637.92
2023-11-19T03:54:51.388Z,100639.35
2023-11-19T03:55:51.748Z,100637.36
2023-11-19T03:56:52.061Z,100637.57
2023-11-19T03:57:52.583Z,100640.08
2023-11-19T03:58:52.882Z,100635.49
2023-11-19T03:59:53.236Z,100630.28
2023-11-19T04:00:53.543Z,100629.95
2023-11-19T04:01:54.003Z,100625.21
2023-11-19T04:02:54.166Z,100627.15
2023-11-19T04:03:54.633Z,100623.06
2023-11-19T04:04:55.451Z,100618.67
2023-11-19T04:05:55.196Z,100618.39
2023-11-19T04:06:56.337Z,100618.83
2023-11-19T04:07:55.902Z,100616.08
2023-11-19T04:08:56.239Z,100614.31
2023-11-19T04:09:56.557Z,100613.25
2023-11-19T04:10:57.065Z,100611.98
2023-11-19T04:11:58.403Z,100609.27
2023-11-19T04:12:57.830Z,100607.62
2023-11-19T04:13:58.291Z,100604.55
2023-11-19T04:15:02.256Z,100610.11
2023-11-19T04:16:00.428Z,100603.7
2023-11-19T04:17:00.334Z,100600.51
2023-11-19T04:18:00.725Z,100605.11
2023-11-19T04:19:01.164Z,100602.22
2023-11-19T04:20:01.572Z,100601.23
2023-11-19T04:21:01.939Z,100602.38
2023-11-19T04:22:02.400Z,100600.45
2023-11-19T04:23:02.720Z,100599.33
2023-11-19T04:24:03.086Z,100603.75
2023-11-19T04:25:04.258Z,100596.58
2023-11-19T04:27:05.949Z,100596.44
2023-11-19T04:28:05.973Z,100598.84
2023-11-19T04:29:06.398Z,100597.67
2023-11-19T04:30:07.856Z,100597.03
2023-11-19T04:31:07.805Z,100602.52
2023-11-19T04:32:07.760Z,100598.06
2023-11-19T04:33:07.858Z,100594.88
2023-11-19T04:34:08.404Z,100592.47
2023-11-19T04:35:09.566Z,100590.85
2023-11-19T04:36:10.142Z,100583.27
2023-11-19T04:38:09.805Z,100586.59
2023-11-19T04:39:10.382Z,100587.14
2023-11-19T04:40:11.627Z,100584.31
2023-11-19T04:41:10.985Z,100580.94
2023-11-19T04:42:11.305Z,100583.27
2023-11-19T04:43:11.762Z,100578.52
2023-11-19T04:44:12.181Z,100580.28
2023-11-19T04:45:12.972Z,100576.17
2023-11-19T04:46:13.260Z,100571.15
2023-11-19T04:47:13.671Z,100565.89
2023-11-19T04:48:13.800Z,100568.81
2023-11-19T04:49:15.071Z,100569.72
2023-11-19T04:50:14.765Z,100572.06
2023-11-19T04:51:15.164Z,100567.81
2023-11-19T04:52:15.538Z,100568.05
2023-11-19T04:53:15.976Z,100567.3
2023-11-19T04:54:16.190Z,100569.81
2023-11-19T04:55:17.015Z,100565.23
2023-11-19T04:56:16.914Z,100566.17
2023-11-19T04:57:18.267Z,100567.79
2023-11-19T04:58:17.801Z,100564.41
2023-11-19T04:59:18.015Z,100567.61
2023-11-19T05:00:20.132Z,100563.34
2023-11-19T05:01:19.036Z,100566.16
2023-11-19T05:02:19.326Z,100563.88
2023-11-19T05:03:19.875Z,100563.05
2023-11-19T05:04:20.648Z,100566.66
2023-11-19T05:05:20.905Z,100560.67
2023-11-19T05:06:21.002Z,100562.02
2023-11-19T05:07:21.658Z,100558.36
2023-11-19T05:08:21.743Z,100562.95
2023-11-19T05:09:22.297Z,100559.8
2023-11-19T05:10:22.625Z,100557.92
2023-11-19T05:11:23.423Z,100561.05
2023-11-19T05:12:23.287Z,100561.67
2023-11-19T05:13:23.777Z,100561.11
2023-11-19T05:14:23.997Z,100563.41
2023-11-19T05:15:24.462Z,100560.48
2023-11-19T05:16:25.170Z,100557.87
2023-11-19T05:17:25.398Z,100557.3
2023-11-19T05:18:25.366Z,100557.55
2023-11-19T05:19:25.921Z,100553.39
2023-11-19T05:20:26.875Z,100554.97
2023-11-19T05:21:27.432Z,100550.39
2023-11-19T05:22:27.556Z,100551.72
2023-11-19T05:23:27.907Z,100550.02
2023-11-19T05:24:28.296Z,100552.35
2023-11-19T05:25:29.058Z,100548.31
2023-11-19T05:26:29.210Z,100548.98
2023-11-19T05:27:29.422Z,100550.8
2023-11-19T05:28:29.774Z,100548.98
2023-11-19T05:29:29.946Z,100550.81
2023-11-19T05:30:30.357Z,100548.51
2023-11-19T05:31:32.312Z,100550.23
2023-11-19T05:32:31.236Z,100548.56
2023-11-19T05:33:31.654Z,100545.53
2023-11-19T05:34:32.172Z,100550.5
2023-11-19T05:35:32.241Z,100551.36
2023-11-19T05:36:32.800Z,100547.65
2023-11-19T05:37:33.098Z,100551.72
2023-11-19T05:38:33.603Z,100552.42
2023-11-19T05:39:34.316Z,100551.8
2023-11-19T05:40:34.490Z,100552.09
2023-11-19T05:41:34.831Z,100552.06
2023-11-19T05:42:35.049Z,100551.03
2023-11-19T05:43:35.719Z,100551.88
2023-11-19T05:44:38.309Z,100557.9
2023-11-19T05:45:37.120Z,100554.98
2023-11-19T05:46:37.765Z,100554.92
2023-11-19T05:47:38.029Z,100555.95
2023-11-19T05:48:38.285Z,100557.95
2023-11-19T05:49:38.887Z,100555.95
2023-11-19T05:50:39.342Z,100553.8
2023-11-19T05:51:40.275Z,100557.17
2023-11-19T05:52:40.139Z,100557.88
2023-11-19T05:53:40.454Z,100554.05
2023-11-19T05:54:40.866Z,100552.94
2023-11-19T05:55:41.393Z,100555.5
2023-11-19T05:56:41.720Z,100558.77
2023-11-19T05:58:42.517Z,100559.5
2023-11-19T05:59:42.633Z,100556.72
2023-11-19T06:00:43.191Z,100558.48
2023-11-19T06:01:43.582Z,100555.34
2023-11-19T06:02:43.810Z,100554.88
2023-11-19T06:03:44.115Z,100556.19
2023-11-19T06:04:44.538Z,100558.59
2023-11-19T06:05:48.620Z,100558.08
2023-11-19T06:06:46.149Z,100557.97
2023-11-19T06:07:46.586Z,100562.66
2023-11-19T06:08:46.839Z,100564.83
2023-11-19T06:09:47.319Z,100562.97
2023-11-19T06:10:48.063Z,100564.26
2023-11-19T06:11:48.086Z,100571.27
2023-11-19T06:12:48.386Z,100573.59
2023-11-19T06:13:49.147Z,100571.52
2023-11-19T06:14:49.297Z,100571.23
2023-11-19T06:15:49.711Z,100569.97
2023-11-19T06:16:50.336Z,100565.27
2023-11-19T06:17:50.589Z,100567.69
2023-11-19T06:18:50.990Z,100568.12
2023-11-19T06:19:51.327Z,100568.89
2023-11-19T06:20:51.518Z,100566.47
2023-11-19T06:21:52.191Z,100566.88
2023-11-19T06:22:52.519Z,100569.43
2023-11-19T06:23:52.718Z,100569.77
2023-11-19T06:24:53.467Z,100564.83
2023-11-19T06:25:53.682Z,100570.23
2023-11-19T06:26:53.989Z,100563.75
2023-11-19T06:27:54.284Z,100568.29
2023-11-19T06:28:54.610Z,100569.43
2023-11-19T06:29:55.024Z,100566.94
2023-11-19T06:30:55.429Z,100569.36
2023-11-19T06:31:55.800Z,100570.48
2023-11-19T06:32:56.170Z,100570.47
2023-11-19T06:33:56.698Z,100573.27
2023-11-19T06:34:57.399Z,100568.95
2023-11-19T06:35:57.532Z,100573.81
2023-11-19T06:36:58.056Z,100573.24
2023-11-19T06:37:58.348Z,100575.67
2023-11-19T06:38:58.766Z,100575.17
2023-11-19T06:39:59.296Z,100578.96
2023-11-19T06:40:59.591Z,100577.78
2023-11-19T06:42:00.045Z,100572.11
2023-11-19T06:43:00.994Z,100578.38
2023-11-19T06:44:00.990Z,100574.95
2023-11-19T06:45:01.204Z,100577.3
2023-11-19T06:46:01.691Z,100577.32
2023-11-19T06:47:02.171Z,100575.14
2023-11-19T06:48:02.948Z,100572.19
2023-11-19T06:49:02.858Z,100575.58
2023-11-19T06:50:03.565Z,100576.94
2023-11-19T06:51:06.464Z,100572.16
2023-11-19T06:52:04.712Z,100572.5
2023-11-19T06:53:04.591Z,100572.88
2023-11-19T06:54:05.018Z,100576.62
2023-11-19T06:55:09.340Z,100574.41
2023-11-19T06:56:18.438Z,100575.31
2023-11-19T06:57:10.866Z,100574.83
2023-11-19T06:58:11.077Z,100574.21
2023-11-19T06:59:11.455Z,100576.06
2023-11-19T07:00:13.001Z,100573.91
2023-11-19T07:01:12.266Z,100567.05
2023-11-19T07:02:12.804Z,100571.55
2023-11-19T07:03:12.895Z,100569.08
2023-11-19T07:04:13.496Z,100564.13
2023-11-19T07:05:13.593Z,100566.79
2023-11-19T07:06:14.336Z,100564.98
2023-11-19T07:07:14.609Z,100565.03
2023-11-19T07:08:15.576Z,100566.72
2023-11-19T07:09:15.288Z,100565.85
2023-11-19T07:10:15.678Z,100562.52
2023-11-19T07:11:16.817Z,100567.36
2023-11-19T07:12:16.444Z,100565.2
2023-11-19T07:13:16.930Z,100569.31
2023-11-19T07:14:17.415Z,100569.94
2023-11-19T07:15:18.042Z,100573.52
2023-11-19T07:16:18.075Z,100571.08
2023-11-19T07:17:19.022Z,100569.59
2023-11-19T07:18:18.938Z,100566.72
2023-11-19T07:19:19.405Z,100570.44
2023-11-19T07:20:19.748Z,100568.91
2023-11-19T07:21:19.938Z,100566.81
2023-11-19T07:22:20.451Z,100564.39
2023-11-19T07:23:20.857Z,100565.04
2023-11-19T07:24:21.905Z,100565.78
2023-11-19T07:25:21.425Z,100560.97
2023-11-19T07:26:22.355Z,100560.09
2023-11-19T07:27:22.337Z,100555.81
2023-11-19T07:28:22.750Z,100560.06
2023-11-19T07:30:23.775Z,100551.48
2023-11-19T07:31:24.727Z,100553
2023-11-19T07:32:24.360Z,100554.92
2023-11-19T07:33:24.783Z,100551.94
2023-11-19T07:34:26.131Z,100552.17
2023-11-19T07:35:25.386Z,100553.75
2023-11-19T07:36:25.660Z,100555.45
2023-11-19T07:37:26.051Z,100551.86
2023-11-19T07:38:26.359Z,100553.34
2023-11-19T07:39:26.704Z,100552.82
2023-11-19T07:40:28.422Z,100553.06
2023-11-19T07:41:27.409Z,100553.55
2023-11-19T07:42:27.695Z,100556.27
2023-11-19T07:43:28.375Z,100553.86
2023-11-19T07:44:28.424Z,100556.33
2023-11-19T07:45:28.809Z,100554.19
2023-11-19T07:46:29.142Z,100551.69
2023-11-19T07:47:29.503Z,100549.62
2023-11-19T07:48:29.751Z,100550.8
2023-11-19T07:49:30.069Z,100551.66
2023-11-19T07:50:30.519Z,100548.64
2023-11-19T07:51:30.879Z,100545.6
2023-11-19T07:52:31.159Z,100546.62
2023-11-19T07:53:31.539Z,100549.26
2023-11-19T07:54:31.930Z,100545.53
2023-11-19T07:55:33.542Z,100544.98
2023-11-19T07:56:34.548Z,100545.73
2023-11-19T07:57:32.993Z,100547.18
2023-11-19T07:58:33.416Z,100548.91
2023-11-19T07:59:33.620Z,100550.45
2023-11-19T08:00:33.848Z,100545.57
2023-11-19T08:01:34.359Z,100545.92
2023-11-19T08:02:35.009Z,100544.62
2023-11-19T08:03:35.359Z,100546.33
2023-11-19T08:04:35.479Z,100546.83
2023-11-19T08:05:35.632Z,100546.85
2023-11-19T08:06:36.435Z,100550.13
2023-11-19T08:07:36.280Z,100549.61
2023-11-19T08:08:36.953Z,100558.05
2023-11-19T08:09:37.046Z,100556.83
2023-11-19T08:10:37.273Z,100553.69
2023-11-19T08:11:37.552Z,100550.58
2023-11-19T08:12:38.321Z,100550.2
2023-11-19T08:13:38.157Z,100551.48
2023-11-19T08:14:38.739Z,100548.05
2023-11-19T08:15:38.829Z,100549.97
2023-11-19T08:16:41.074Z,100546.02
2023-11-19T08:17:40.499Z,100543.02
2023-11-19T08:18:42.347Z,100546.77
2023-11-19T08:19:40.400Z,100544.72
2023-11-19T08:20:40.942Z,100543.77
2023-11-19T08:21:40.921Z,100541.33
2023-11-19T08:22:41.272Z,100545.28
2023-11-19T08:23:41.575Z,100545.73
2023-11-19T08:24:41.972Z,100545.91
2023-11-19T08:25:42.179Z,100544.35
2023-11-19T08:26:42.510Z,100545.62
2023-11-19T08:27:42.913Z,100545.03
2023-11-19T08:28:43.071Z,100541.5
2023-11-19T08:29:43.654Z,100541.2
2023-11-19T08:30:43.781Z,100543.74
2023-11-19T08:31:44.279Z,100543.8
2023-11-19T08:32:44.613Z,100538.49
2023-11-19T08:33:44.779Z,100536.55
2023-11-19T08:34:45.061Z,100537.87
2023-11-19T08:35:45.393Z,100537.04
2023-11-19T08:36:45.676Z,100532.34
2023-11-19T08:37:46.661Z,100533.84
2023-11-19T08:38:46.498Z,100527.81
2023-11-19T08:39:46.672Z,100529.25
2023-11-19T08:40:47.092Z,100530
2023-11-19T08:41:47.396Z,100525.28
2023-11-19T08:42:47.774Z,100525.55
2023-11-19T08:43:48.158Z,100524.8
2023-11-19T08:44:51.559Z,100525.64
2023-11-19T08:45:49.189Z,100525.04
2023-11-19T08:46:50.308Z,100526.16
2023-11-19T08:47:49.736Z,100523.56
2023-11-19T08:48:49.895Z,100522.25
2023-11-19T08:50:53.737Z,100524.05
2023-11-19T08:51:54.193Z,100522.19
2023-11-19T08:52:54.448Z,100527.9
2023-11-19T08:53:54.741Z,100524.92
2023-11-19T08:54:55.104Z,100524.35
2023-11-19T08:55:55.495Z,100523.56
2023-11-19T08:56:55.742Z,100519.54
2023-11-19T08:57:56.128Z,100516.16
2023-11-19T08:58:56.477Z,100518.01
2023-11-19T08:59:56.689Z,100518.14
2023-11-19T09:00:57.309Z,100518.6
2023-11-19T09:01:57.284Z,100519.59
2023-11-19T09:02:57.887Z,100515.83
2023-11-19T09:03:58.107Z,100517.4
2023-11-19T09:04:58.527Z,100515.8
2023-11-19T09:05:58.626Z,100516.88
2023-11-19T09:06:59.552Z,100515.98
2023-11-19T09:07:59.359Z,100513.45
2023-11-19T09:09:00.215Z,100516.89
2023-11-19T09:09:59.936Z,100520.15
2023-11-19T09:11:00.392Z,100516.72
2023-11-19T09:12:00.713Z,100517.75
2023-11-19T09:13:01.013Z,100515.72
2023-11-19T09:14:01.291Z,100515.03
2023-11-19T09:15:01.851Z,100509.84
2023-11-19T09:16:02.076Z,100509.34
2023-11-19T09:17:02.128Z,100509.8
2023-11-19T09:18:03.052Z,100512.09
2023-11-19T09:19:04.433Z,100509.69
2023-11-19T09:20:03.323Z,100508.41
2023-11-19T09:21:03.973Z,100508.22
2023-11-19T09:22:04.047Z,100505.17
2023-11-19T09:23:04.607Z,100505.39
2023-11-19T09:24:05.189Z,100504.03
2023-11-19T09:25:05.635Z,100497.6
2023-11-19T09:26:06.031Z,100500.27
2023-11-19T09:27:06.079Z,100503.48
2023-11-19T09:28:05.928Z,100501.71
2023-11-19T09:29:06.203Z,100501.98
2023-11-19T09:30:07.718Z,100500.36
2023-11-19T09:31:19.247Z,100500.36
2023-11-19T09:32:11.673Z,100497.11
2023-11-19T09:33:12.109Z,100496.56
2023-11-19T09:34:12.326Z,100497.84
2023-11-19T09:35:12.565Z,100496.3
2023-11-19T09:36:16.176Z,100495.72
2023-11-19T09:38:13.965Z,100493.27
2023-11-19T09:39:14.607Z,100488.88
2023-11-19T09:40:14.813Z,100489.52
2023-11-19T09:41:15.166Z,100488.39
2023-11-19T09:42:15.446Z,100489.05
2023-11-19T09:43:16.790Z,100486.23
2023-11-19T09:44:16.122Z,100485.53
2023-11-19T09:45:18.117Z,100481.12
2023-11-19T09:46:17.776Z,100480.9
2023-11-19T09:47:18.732Z,100480.73
2023-11-19T09:48:20.958Z,100481.22
2023-11-19T09:49:36.102Z,100481.06
2023-11-19T09:50:20.420Z,100479.94
2023-11-19T09:51:19.081Z,100481.22
2023-11-19T09:52:19.606Z,100474.49
2023-11-19T09:53:20.054Z,100476.19
2023-11-19T09:54:20.231Z,100472.42
2023-11-19T09:55:20.337Z,100475.17
2023-11-19T09:56:21.110Z,100468.98
2023-11-19T09:57:21.218Z,100464.41
2023-11-19T09:58:21.588Z,100467.38
2023-11-19T09:59:22.170Z,100470.02
2023-11-19T10:00:22.790Z,100466.94
2023-11-19T10:01:26.600Z,100464.48
2023-11-19T10:02:30.658Z,100466.42
2023-11-19T10:04:31.600Z,100468.33
2023-11-19T10:05:30.606Z,100465.03
2023-11-19T10:06:30.961Z,100465.36
2023-11-19T10:07:31.478Z,100461.25
2023-11-19T10:08:31.722Z,100460.32
2023-11-19T10:09:32.308Z,100459.72
2023-11-19T10:10:32.111Z,100459.53
2023-11-19T10:11:32.645Z,100464.6
2023-11-19T10:12:32.806Z,100463.32
2023-11-19T10:13:35.973Z,100458.06
2023-11-19T10:14:36.175Z,100460.56
2023-11-19T10:15:37.620Z,100458.93
2023-11-19T10:16:36.183Z,100458.33
2023-11-19T10:17:35.684Z,100459.55
2023-11-19T10:18:35.717Z,100458.78
2023-11-19T10:19:36.473Z,100456.3
2023-11-19T10:21:39.064Z,100454.38
2023-11-19T10:22:39.363Z,100454.09
2023-11-19T10:24:46.658Z,100450.06
2023-11-19T10:25:46.761Z,100450.3
2023-11-19T10:26:47.089Z,100452.65
2023-11-19T10:27:47.479Z,100451.25
2023-11-19T10:28:50.866Z,100452.44
2023-11-19T10:29:49.001Z,100446.77
2023-11-19T10:30:49.460Z,100452.14
2023-11-19T10:31:57.621Z,100452.06
2023-11-19T10:33:50.267Z,100451.66
2023-11-19T10:34:50.652Z,100449.5
2023-11-19T10:36:52.353Z,100446.66
2023-11-19T10:37:52.778Z,100449.54
2023-11-19T10:38:57.594Z,100453.55
2023-11-19T10:39:55.911Z,100448.83
2023-11-19T10:40:55.897Z,100452.62
2023-11-19T10:41:59.116Z,100452.11
2023-11-19T10:43:04.094Z,100456.05
2023-11-19T10:44:01.333Z,100449.66
2023-11-19T10:45:01.940Z,100455.34
2023-11-19T10:47:09.324Z,100450.67
2023-11-19T10:48:08.421Z,100453.02
2023-11-19T10:49:08.416Z,100445.05
2023-11-19T10:50:08.538Z,100444.91
2023-11-19T10:51:08.673Z,100443.05
2023-11-19T10:52:10.277Z,100439.48
2023-11-19T10:53:11.152Z,100435.53
2023-11-19T10:54:10.310Z,100437.31
2023-11-19T10:55:12.343Z,100438.27
2023-11-19T10:56:14.428Z,100433.12
2023-11-19T10:57:17.834Z,100434.94
2023-11-19T10:58:17.378Z,100436.79
2023-11-19T11:00:20.679Z,100432.27
2023-11-19T11:01:20.881Z,100432.23
2023-11-19T11:02:23.048Z,100431.48
2023-11-19T11:03:21.817Z,100428.56
2023-11-19T11:04:25.224Z,100431.09
2023-11-19T11:05:25.445Z,100428.62
2023-11-19T11:06:23.624Z,100425.73
2023-11-19T11:07:29.963Z,100425
2023-11-19T11:08:24.116Z,100422.64
2023-11-19T11:09:24.730Z,100422.64
2023-11-19T11:10:27.419Z,100424.77
2023-11-19T11:11:27.312Z,100425.17
2023-11-19T11:12:26.427Z,100418.67
2023-11-19T11:13:27.303Z,100421.27
2023-11-19T11:14:28.032Z,100424.14
2023-11-19T11:15:30.022Z,100425.84
2023-11-19T11:16:28.456Z,100426.71
2023-11-19T11:17:32.620Z,100425.56
2023-11-19T11:18:30.152Z,100420.74
2023-11-19T11:19:30.752Z,100420.7
2023-11-19T11:20:35.601Z,100423.46
2023-11-19T11:21:33.821Z,100421.52
2023-11-19T11:38:23.388Z,100409.56
2023-11-19T11:39:23.760Z,100408.19
2023-11-19T11:40:21.220Z,100408.05
2023-11-19T11:41:24.321Z,100405.98
2023-11-19T11:48:36.374Z,100402.8
2023-11-19T11:49:36.475Z,100403.77
2023-11-19T11:50:48.135Z,100403.94
2023-11-19T11:53:48.365Z,100399.28
2023-11-19T11:54:46.064Z,100403.38
2023-11-19T11:57:48.934Z,100402.74
2023-11-19T11:58:48.539Z,100405.9
2023-11-19T11:59:50.249Z,100407.01
2023-11-19T12:00:50.147Z,100406.88
2023-11-19T12:02:55.481Z,100402.36
2023-11-19T12:03:57.091Z,100402.75
2023-11-19T12:04:54.909Z,100399.7
2023-11-19T12:05:55.020Z,100398.84
2023-11-19T12:08:05.809Z,100393.46
2023-11-19T12:09:03.890Z,100387.78
2023-11-19T12:10:10.726Z,100389.67
2023-11-19T12:11:08.351Z,100386.15
2023-11-19T12:13:11.028Z,100387.03
2023-11-19T12:14:11.293Z,100385.86
2023-11-19T12:15:11.886Z,100385.02
2023-11-19T12:16:12.467Z,100383.09
2023-11-19T12:18:20.518Z,100379.34
2023-11-19T12:19:19.410Z,100378.2
2023-11-19T12:20:34.532Z,100380.62
2023-11-19T12:21:34.326Z,100379.01
2023-11-19T12:22:27.062Z,100379.62